Latest Weather Observations for Mount Lofty

IDS60801

Issued at 10:32 pm CDT Saturday 28 February 2015 (issued every 30 minutes, with the page automatically refreshed every 10 minutes)

About weather observations | Map of weather stations | Latest weather observations for SA | Other Formats
Station Details ID: 023842 Name: MOUNT LOFTY Lat: -34.98 Lon: 138.71 Height: 685.0 m
Data from the previous 72 hours. | See also: Recent months at Mount Lofty
Date/Time
CDT
Temp
°C
App
Temp
°C
Dew
Point
Rel
Hum
%
Delta-T
°C
Wind Press
QNH
hPa
Press
MSL
hPa
Rain
since 9 am
mm
Dir
 
Spd
km/h
Gust
km/h
Spd
kts
Gust
kts
28/10:30pm 12.6 11.5 10.7 88 1.0 SSW 7 19 4 10 - - 0.0
28/10:00pm 13.0 11.6 10.9 87 1.1 S 9 15 5 8 - - 0.0
28/09:30pm 13.6 12.4 11.7 88 1.1 S 9 17 5 9 - - 0.0
28/09:00pm 13.8 12.1 11.3 85 1.4 S 11 26 6 14 - - 0.0
28/08:30pm 15.1 14.5 13.6 91 0.9 S 9 17 5 9 - - 0.0
28/08:00pm 15.5 15.1 14.0 91 0.9 S 9 19 5 10 - - 0.0
28/07:30pm 16.9 17.0 13.8 82 1.8 S 6 15 3 8 - - 0.0
28/07:00pm 18.8 18.8 14.1 74 2.8 SW 7 15 4 8 - - 0.0
28/06:30pm 19.6 19.2 14.0 70 3.3 SW 9 24 5 13 - - 0.0
28/06:00pm 21.1 21.0 13.8 63 4.4 SW 7 15 4 8 - - 0.0
28/05:30pm 21.5 20.7 12.9 58 5.1 SW 9 17 5 9 - - 0.0
28/05:00pm 22.3 21.8 12.8 55 5.6 SW 7 19 4 10 - - 0.0
28/04:30pm 22.5 22.4 14.9 62 4.6 SW 9 17 5 9 - - 0.0
28/04:00pm 22.5 22.3 14.6 61 4.8 SW 9 17 5 9 - - 0.0
28/03:30pm 22.9 22.4 13.7 56 5.5 SW 9 17 5 9 - - 0.0
28/03:00pm 25.3 23.8 10.4 39 8.5 W 9 17 5 9 - - 0.0
28/02:30pm 26.5 25.2 11.4 39 8.9 W 9 17 5 9 - - 0.0
28/02:00pm 26.4 25.2 11.7 40 8.7 W 9 19 5 10 - - 0.0
28/01:30pm 27.6 25.8 9.4 32 10.4 W 9 19 5 10 - - 0.0
28/01:00pm 27.3 25.2 9.6 33 10.1 W 11 24 6 13 - - 0.0
28/12:30pm 28.2 25.1 9.0 30 10.9 W 15 37 8 20 - - 0.0
28/12:00pm 28.0 24.3 9.3 31 10.7 WNW 19 33 10 18 - - 0.0
28/11:30am 27.4 23.9 8.8 31 10.5 WNW 17 35 9 19 - - 0.0
28/11:00am 26.4 22.8 9.7 35 9.5 WNW 19 35 10 19 - - 0.0
28/10:30am 26.2 23.1 10.4 37 9.1 WNW 17 33 9 18 - - 0.0
28/10:00am 26.2 22.8 10.4 37 9.1 NW 19 30 10 16 - - 0.0
28/09:30am 25.4 21.9 10.1 38 8.7 NW 19 35 10 19 - - 0.0
28/09:00am 25.3 22.2 10.4 39 8.5 NW 17 30 9 16 - - 0.2
28/08:30am 24.2 21.2 10.8 43 7.7 NNW 17 28 9 15 - - 0.2
28/08:00am 23.8 21.2 10.8 44 7.5 N 15 24 8 13 - - 0.2
28/07:30am 23.6 20.9 10.3 43 7.6 N 15 26 8 14 - - 0.2
28/07:00am 23.9 21.5 10.2 42 7.8 N 13 26 7 14 - - 0.2
28/06:30am 23.4 21.9 10.5 44 7.3 NNE 9 26 5 14 - - 0.2
28/06:00am 23.4 21.5 10.5 44 7.3 N 11 19 6 10 - - 0.2
28/05:30am 22.8 21.7 10.6 46 6.9 NNE 7 17 4 9 - - 0.2
28/05:00am 21.2 20.0 11.5 54 5.6 ENE 9 20 5 11 - - 0.2
28/04:30am 20.1 18.8 11.3 57 5.0 E 9 19 5 10 - - 0.2
28/04:00am 19.8 19.0 11.8 60 4.6 E 7 15 4 8 - - 0.2
28/03:30am 19.6 18.9 12.1 62 4.3 E 7 15 4 8 - - 0.2
28/03:00am 19.3 18.6 12.1 63 4.1 E 7 15 4 8 - - 0.2
28/02:30am 19.2 18.7 12.5 65 3.9 E 7 15 4 8 - - 0.2
28/02:00am 19.1 18.3 12.8 67 3.7 E 9 19 5 10 - - 0.2
28/01:30am 19.0 18.6 13.0 68 3.5 ESE 7 17 4 9 - - 0.2
28/01:00am 19.1 18.6 12.8 67 3.7 E 7 11 4 6 - - 0.2
28/12:30am 18.9 17.5 12.2 65 3.8 ESE 11 22 6 12 - - 0.2
28/12:00am 18.4 17.1 12.6 69 3.3 ESE 11 20 6 11 - - 0.2
 
Date/Time
CDT
Temp
°C
App
Temp
°C
Dew
Point
Rel
Hum
%
Delta-T
°C
Wind Press
QNH
hPa
Press
MSL
hPa
Rain
since 9 am
mm
Dir
 
Spd
km/h
Gust
km/h
Spd
kts
Gust
kts
27/11:30pm 18.5 17.8 12.0 66 3.7 ESE 7 11 4 6 - - 0.2
27/11:00pm 18.5 17.9 12.3 67 3.6 ESE 7 11 4 6 - - 0.2
27/10:30pm 18.7 18.2 12.5 67 3.6 ESE 7 13 4 7 - - 0.2
27/10:00pm 17.9 17.1 12.8 72 2.9 ESE 9 13 5 7 - - 0.0
27/09:30pm 19.4 17.4 11.4 60 4.5 ESE 13 19 7 10 - - 0.0
27/09:00pm 20.4 18.9 11.9 58 4.9 ESE 11 19 6 10 - - 0.0
27/08:30pm 21.0 20.4 12.4 58 5.0 ESE 7 11 4 6 - - 0.0
27/08:00pm 22.3 21.9 12.5 53 5.7 SE 6 9 3 5 - - 0.0
27/07:30pm 24.6 23.7 11.5 44 7.6 ESE 7 11 4 6 - - 0.0
27/07:00pm 25.9 25.1 10.9 39 8.7 SSE 6 9 3 5 - - 0.0
27/06:30pm 26.7 26.5 10.4 36 9.4 SSE 2 4 1 2 - - 0.0
27/06:00pm 26.9 26.0 9.3 33 10.0 S 4 7 2 4 - - 0.0
27/05:30pm 27.3 26.5 9.6 33 10.1 W 4 7 2 4 - - 0.0
27/05:00pm 27.4 26.9 9.3 32 10.3 W 2 4 1 2 - - 0.0
27/04:30pm 27.2 26.3 9.1 32 10.3 W 4 11 2 6 - - 0.0
27/04:00pm 27.5 26.2 9.3 32 10.4 W 6 13 3 7 - - 0.0
27/03:30pm 27.5 25.9 10.2 34 10.0 W 9 17 5 9 - - 0.0
27/03:00pm 28.1 26.5 10.3 33 10.3 WNW 9 17 5 9 - - 0.0
27/02:30pm 27.7 26.2 10.4 34 10.0 NW 9 17 5 9 - - 0.0
27/02:00pm 28.0 26.4 10.2 33 10.3 WNW 9 15 5 8 - - 0.0
27/01:30pm 27.3 25.9 9.6 33 10.1 WNW 7 17 4 9 - - 0.0
27/01:00pm 27.4 25.3 9.7 33 10.1 WNW 11 20 6 11 - - 0.0
27/12:30pm 26.5 23.8 8.9 33 9.9 NW 13 22 7 12 - - 0.0
27/12:00pm 26.1 24.7 9.5 35 9.4 NW 7 15 4 8 - - 0.0
27/11:30am 25.3 24.1 10.4 39 8.5 NNW 7 13 4 7 - - 0.0
27/11:00am 24.9 23.7 9.6 38 8.6 WNW 6 11 3 6 - - 0.0
27/10:30am 24.2 22.9 10.1 41 8.0 NW 7 11 4 6 - - 0.0
27/10:00am 23.8 22.7 10.1 42 7.8 NW 6 9 3 5 - - 0.0
27/09:30am 23.4 22.5 10.5 44 7.3 NNW 6 9 3 5 - - 0.0
27/09:00am 22.2 20.9 10.0 46 6.8 NNW 7 11 4 6 - - 0.0
27/08:30am 21.2 19.9 10.1 49 6.2 NNW 7 11 4 6 - - 0.0
27/08:00am 20.5 19.2 10.0 51 5.8 NNW 7 9 4 5 - - 0.0
27/07:30am 20.2 19.1 10.0 52 5.7 NW 6 6 3 3 - - 0.0
27/07:00am 19.6 18.8 9.8 53 5.4 NW 4 7 2 4 - - 0.0
27/06:30am 19.9 18.8 9.8 52 5.6 WNW 6 9 3 5 - - 0.0
27/06:00am 19.1 18.4 10.1 56 5.0 WNW 4 6 2 3 - - 0.0
27/05:30am 17.6 17.0 7.4 51 5.3 CALM 0 2 0 1 - - 0.0
27/05:00am 17.0 14.4 4.3 43 6.2 ESE 7 9 4 5 - - 0.0
27/04:30am 16.5 13.9 4.2 44 6.0 E 7 9 4 5 - - 0.0
27/04:00am 17.0 14.5 4.0 42 6.3 ESE 6 9 3 5 - - 0.0
27/03:30am 16.8 15.0 5.4 47 5.7 ESE 4 7 2 4 - - 0.0
27/03:00am 16.0 13.6 5.3 49 5.3 E 7 9 4 5 - - 0.0
27/02:30am 16.6 14.5 6.7 52 5.1 ESE 7 11 4 6 - - 0.0
27/02:00am 17.1 15.9 9.5 61 4.1 ESE 6 9 3 5 - - 0.0
27/01:30am 17.9 17.0 9.3 57 4.7 ESE 4 7 2 4 - - 0.0
27/01:00am 19.0 18.7 10.0 56 5.0 SE 2 4 1 2 - - 0.0
27/12:30am 18.5 17.7 9.8 57 4.8 ESE 4 6 2 3 - - 0.0
27/12:00am 18.6 17.9 9.9 57 4.8 ESE 4 6 2 3 - - 0.0
 
Date/Time
CDT
Temp
°C
App
Temp
°C
Dew
Point
Rel
Hum
%
Delta-T
°C
Wind Press
QNH
hPa
Press
MSL
hPa
Rain
since 9 am
mm
Dir
 
Spd
km/h
Gust
km/h
Spd
kts
Gust
kts
26/11:30pm 19.3 18.7 10.3 56 5.0 SE 4 7 2 4 - - 0.0
26/11:00pm 19.2 18.5 10.2 56 5.0 SE 4 7 2 4 - - 0.0
26/10:30pm 19.8 18.5 9.1 50 5.8 ESE 6 7 3 4 - - 0.0
26/10:00pm 21.4 20.6 9.6 47 6.5 SSE 4 7 2 4 - - 0.0
26/09:30pm 21.5 20.6 9.4 46 6.7 S 4 6 2 3 - - 0.0
26/09:00pm 21.6 21.1 9.5 46 6.7 SSE 2 6 1 3 - - 0.0
26/08:30pm 21.5 21.6 10.0 48 6.4 CALM 0 4 0 2 - - 0.0
26/08:00pm 22.5 22.0 10.6 47 6.8 SSW 4 7 2 4 - - 0.0
26/07:30pm 23.5 22.8 9.9 42 7.7 SW 4 7 2 4 - - 0.0
26/07:00pm 24.0 22.9 9.9 41 8.0 SW 6 11 3 6 - - 0.0
26/06:30pm 24.8 23.3 9.1 37 8.8 SSW 7 13 4 7 - - 0.0
26/06:00pm 25.7 23.8 9.1 35 9.3 SW 9 17 5 9 - - 0.0
26/05:30pm 26.6 25.1 8.6 32 10.1 SW 6 11 3 6 - - 0.0
26/05:00pm 26.4 24.2 6.4 28 10.8 WSW 7 15 4 8 - - 0.0
26/04:30pm 26.4 24.2 6.4 28 10.8 W 7 17 4 9 - - 0.0
26/04:00pm 26.4 23.9 4.8 25 11.3 W 7 13 4 7 - - 0.0
26/03:30pm 26.9 24.7 6.3 27 11.1 W 7 13 4 7 - - 0.0
26/03:00pm 26.8 25.0 7.8 30 10.5 WNW 7 15 4 8 - - 0.0
26/02:30pm 26.8 25.1 8.3 31 10.3 WSW 7 15 4 8 - - 0.0
26/02:00pm 26.2 24.2 7.3 30 10.3 W 7 13 4 7 - - 0.0
26/01:30pm 26.1 24.0 6.7 29 10.5 WNW 7 15 4 8 - - 0.0
26/01:00pm 26.1 24.3 7.2 30 10.3 WNW 6 9 3 5 - - 0.0
26/12:30pm 25.1 23.0 5.8 29 10.2 NNW 6 11 3 6 - - 0.0
26/12:00pm 24.2 22.2 4.6 28 10.1 SW 4 7 2 4 - - 0.0
26/11:30am 23.5 20.9 3.4 27 10.1 W 6 9 3 5 - - 0.0
26/11:00am 22.4 19.9 1.4 25 10.1 WSW 4 6 2 3 - - 0.0
26/10:30am 21.1 18.7 1.9 28 9.2 W 4 7 2 4 - - 0.0
26/10:00am 20.8 18.2 1.1 27 9.3 WSW 4 6 2 3 - - 0.0
26/09:30am 20.3 17.1 -3.4 20 10.2 SW 4 7 2 4 - - 0.0
26/09:00am 20.3 17.1 -3.4 20 10.2 S 4 9 2 5 - - 0.0
26/08:30am 20.1 16.5 -3.5 20 10.1 S 6 11 3 6 - - 0.0
26/08:00am 18.8 15.2 -4.0 21 9.5 S 6 11 3 6 - - 0.0
26/07:30am 18.4 15.0 -4.9 20 9.5 S 4 11 2 6 - - 0.0
26/07:00am 17.6 13.9 -5.0 21 9.2 WSW 6 11 3 6 - - 0.0
26/06:30am 18.9 14.9 -5.9 18 10.0 SSW 7 13 4 7 - - 0.0
26/06:00am 17.1 13.4 -4.8 22 8.9 SSE 6 7 3 4 - - 0.0
26/05:30am 17.5 13.6 -4.4 22 9.0 SSE 7 15 4 8 - - 0.0
26/05:00am 14.9 11.2 -4.4 26 7.7 SE 6 11 3 6 - - 0.0
26/04:30am 14.1 10.9 3.3 48 5.1 ESE 9 17 5 9 - - 0.0
26/04:00am 16.0 12.0 0.2 34 7.0 SSE 11 19 6 10 - - 0.0
26/03:30am 17.6 13.7 -6.3 19 9.4 S 6 11 3 6 - - 0.0
26/03:00am 16.6 14.0 3.0 40 6.4 SSE 6 13 3 7 - - 0.0
26/02:30am 16.3 14.6 8.5 60 4.1 SSE 7 17 4 9 - - 0.0
26/02:00am 17.7 15.6 5.9 46 6.0 SSE 6 9 3 5 - - 0.0
26/01:30am 16.7 14.8 6.5 51 5.2 SSE 6 11 3 6 - - 0.0
26/01:00am 16.6 14.0 6.1 50 5.3 SSE 9 15 5 8 - - 0.0
26/12:30am 17.5 14.2 0.2 31 7.8 SSE 7 17 4 9 - - 0.0
26/12:00am 17.6 13.9 -5.0 21 9.2 SE 6 9 3 5 - - 0.0
 
Date/Time
CDT
Temp
°C
App
Temp
°C
Dew
Point
Rel
Hum
%
Delta-T
°C
Wind Press
QNH
hPa
Press
MSL
hPa
Rain
since 9 am
mm
Dir
 
Spd
km/h
Gust
km/h
Spd
kts
Gust
kts
25/11:30pm 17.8 13.9 -6.8 18 9.6 S 6 9 3 5 - - 0.0
25/11:00pm 17.8 14.4 -1.9 26 8.5 S 6 13 3 7 - - 0.0

Other Formats:

Comma delimited format used in spreadsheet applications
http://www.bom.gov.au/fwo/IDS60801/IDS60801.95678.axf

JavaScript Object Notation format (JSON) in row-major order
http://www.bom.gov.au/fwo/IDS60801/IDS60801.95678.json